Time;durP1;ratioP1;P1;durP2;ratioP2;P2;SDS_P1;SDS_P2;PMS_P1;PMS_P2;Temp;Humidity;BMP_temperature;BMP_pressure;BME280_temperature;BME280_humidity;BME280_pressure;Samples;Min_cycle;Max_cycle;Signal;HPM_P1;HPM_P2
2023/02/27 00:00:37;;;;;;;13.82;3.65;;;;;;;;;;12817222;19;20476;-68
2023/02/27 00:05:36;;;;;;;4.30;2.35;;;;;;;;;;12811179;19;20423;-68
2023/02/27 00:10:46;;;;;;;6.03;3.00;;;;;;;;;;12811458;19;20435;-68
2023/02/27 00:16:04;;;;;;;9.23;3.65;;;;;;;;;;12708530;19;2004943;-68
2023/02/27 00:20:43;;;;;;;5.88;1.98;;;;;;;;;;12810499;19;20513;-69
2023/02/27 00:31:37;;;;;;;11.15;4.15;;;;;;;;;;12707329;19;2005255;-69
2023/02/27 00:36:39;;;;;;;11.68;3.58;;;;;;;;;;12807737;19;20450;-68
2023/02/27 00:47:44;;;;;;;4.10;1.92;;;;;;;;;;12706583;19;2005239;-68
2023/02/27 00:52:38;;;;;;;6.63;2.60;;;;;;;;;;12808412;19;20018;-68
2023/02/27 00:57:07;;;;;;;7.47;1.85;;;;;;;;;;12814182;19;20494;-68
2023/02/27 01:12:14;;;;;;;5.80;1.88;;;;;;;;;;12821731;19;20430;-69
2023/02/27 01:22:39;;;;;;;5.93;2.03;;;;;;;;;;12818088;19;20548;-69
2023/02/27 01:27:13;;;;;;;5.72;2.53;;;;;;;;;;12811955;19;20352;-68
2023/02/27 01:32:38;;;;;;;4.97;1.80;;;;;;;;;;12825032;19;20508;-69
2023/02/27 01:37:49;;;;;;;6.97;1.80;;;;;;;;;;12827823;19;20487;-69
2023/02/27 01:42:36;;;;;;;2.20;1.30;;;;;;;;;;12827274;19;20021;-68
2023/02/27 01:58:19;;;;;;;3.47;1.52;;;;;;;;;;12815066;19;20337;-68
2023/02/27 02:03:06;;;;;;;3.47;2.00;;;;;;;;;;12817237;19;20752;-68
2023/02/27 02:07:46;;;;;;;2.67;1.45;;;;;;;;;;12818062;19;20778;-68
2023/02/27 02:12:49;;;;;;;5.22;1.70;;;;;;;;;;12815802;19;20010;-68
2023/02/27 02:17:54;;;;;;;2.95;1.60;;;;;;;;;;12815354;19;20471;-68
2023/02/27 02:35:36;;;;;;;2.53;1.60;;;;;;;;;;12721689;19;2004902;-69
2023/02/27 02:40:56;;;;;;;3.67;1.60;;;;;;;;;;12823119;19;20348;-69
2023/02/27 02:46:49;;;;;;;3.92;1.80;;;;;;;;;;12813682;19;20080;-68
2023/02/27 02:51:36;;;;;;;4.40;1.60;;;;;;;;;;12820979;19;20359;-68
2023/02/27 02:56:52;;;;;;;4.82;1.70;;;;;;;;;;12820998;19;20011;-68
2023/02/27 03:02:15;;;;;;;6.55;2.22;;;;;;;;;;12820663;19;20010;-68
2023/02/27 03:07:01;;;;;;;3.90;1.85;;;;;;;;;;12816252;19;20010;-68
2023/02/27 03:12:13;;;;;;;4.13;2.33;;;;;;;;;;12816761;19;20782;-68
2023/02/27 03:17:18;;;;;;;5.45;1.70;;;;;;;;;;12810977;19;20460;-68
2023/02/27 03:22:11;;;;;;;4.72;2.65;;;;;;;;;;12812449;19;20312;-68
2023/02/27 03:33:47;;;;;;;5.18;2.10;;;;;;;;;;12701397;19;2004941;-68
2023/02/27 03:38:52;;;;;;;5.85;2.03;;;;;;;;;;12812264;19;20470;-68
2023/02/27 03:43:53;;;;;;;6.05;2.20;;;;;;;;;;12813707;19;20503;-68
2023/02/27 03:48:37;;;;;;;5.05;2.08;;;;;;;;;;12816450;19;20445;-68
2023/02/27 03:53:40;;;;;;;4.45;2.10;;;;;;;;;;12818024;19;20370;-68
2023/02/27 04:04:18;;;;;;;8.43;2.50;;;;;;;;;;12817076;19;20307;-69
2023/02/27 04:09:58;;;;;;;5.70;2.38;;;;;;;;;;12812179;19;20346;-69
2023/02/27 04:21:09;;;;;;;12.60;5.10;;;;;;;;;;12811883;19;20106;-68
2023/02/27 04:26:48;;;;;;;6.95;3.03;;;;;;;;;;12808870;19;21981;-68
2023/02/27 04:32:20;;;;;;;7.45;2.88;;;;;;;;;;12717750;19;2004996;-68
2023/02/27 04:43:20;;;;;;;8.73;2.55;;;;;;;;;;12697819;19;2004621;-68
2023/02/27 04:48:52;;;;;;;7.13;2.42;;;;;;;;;;12797330;19;20435;-69
2023/02/27 04:54:15;;;;;;;7.05;2.65;;;;;;;;;;12800364;19;20014;-68
2023/02/27 05:10:53;;;;;;;6.25;2.53;;;;;;;;;;12718371;19;2005211;-69
2023/02/27 05:15:48;;;;;;;6.47;2.72;;;;;;;;;;12817622;19;20459;-68
2023/02/27 05:21:11;;;;;;;3.60;1.95;;;;;;;;;;12819185;19;20011;-68
2023/02/27 05:26:50;;;;;;;5.72;2.22;;;;;;;;;;12819970;19;21020;-68
2023/02/27 05:32:37;;;;;;;6.10;1.95;;;;;;;;;;12818218;19;20316;-68
2023/02/27 05:42:48;;;;;;;7.82;2.65;;;;;;;;;;12817096;19;20432;-68
2023/02/27 05:47:35;;;;;;;7.43;2.45;;;;;;;;;;12817057;19;20011;-69
2023/02/27 05:58:36;;;;;;;6.18;2.25;;;;;;;;;;12723553;19;2004976;-68
2023/02/27 06:03:01;;;;;;;4.15;2.10;;;;;;;;;;12823818;19;20379;-69
2023/02/27 06:13:37;;;;;;;5.05;2.40;;;;;;;;;;12821280;19;20295;-68
2023/02/27 06:18:37;;;;;;;4.82;2.15;;;;;;;;;;12823268;19;20029;-68
2023/02/27 06:29:16;;;;;;;4.38;1.95;;;;;;;;;;12820403;19;20040;-68
2023/02/27 06:33:54;;;;;;;8.05;2.85;;;;;;;;;;12823794;19;20380;-69
2023/02/27 06:38:17;;;;;;;4.40;1.90;;;;;;;;;;12822631;19;20375;-68
2023/02/27 06:43:43;;;;;;;5.63;2.88;;;;;;;;;;12815856;19;20022;-69
2023/02/27 06:48:58;;;;;;;5.55;2.47;;;;;;;;;;12820791;19;20339;-69
2023/02/27 06:54:14;;;;;;;7.57;2.03;;;;;;;;;;12819225;19;20100;-69
2023/02/27 07:04:14;;;;;;;4.32;1.77;;;;;;;;;;12814162;19;20310;-68
2023/02/27 07:08:55;;;;;;;15.60;6.53;;;;;;;;;;12821737;19;20473;-68
2023/02/27 07:14:47;;;;;;;10.48;3.40;;;;;;;;;;12812892;19;20038;-68
2023/02/27 07:19:51;;;;;;;;;;;;;;;;;;12713607;19;2005119;-68
2023/02/27 07:24:17;;;;;;;25.58;14.65;;;;;;;;;;12818068;19;20352;-68
2023/02/27 07:34:38;;;;;;;29.10;8.95;;;;;;;;;;12811103;19;20026;-68
2023/02/27 07:39:47;;;;;;;41.90;9.20;;;;;;;;;;12813082;19;20291;-68
2023/02/27 07:44:20;;;;;;;29.85;6.57;;;;;;;;;;12814007;19;20367;-68
2023/02/27 07:49:25;;;;;;;12.57;3.75;;;;;;;;;;12814202;19;20464;-68
2023/02/27 07:54:47;;;;;;;18.75;7.03;;;;;;;;;;12811852;19;20649;-68
2023/02/27 07:59:50;;;;;;;10.32;7.03;;;;;;;;;;12810363;19;20303;-69
2023/02/27 08:04:28;;;;;;;14.90;4.03;;;;;;;;;;12810269;19;20323;-69
2023/02/27 08:09:25;;;;;;;33.08;7.32;;;;;;;;;;12798194;19;20347;-69
2023/02/27 08:14:14;;;;;;;40.30;10.52;;;;;;;;;;12796924;19;20502;-68
2023/02/27 08:19:19;;;;;;;23.75;6.10;;;;;;;;;;12797019;19;20299;-69
2023/02/27 08:24:15;;;;;;;6.32;3.08;;;;;;;;;;12807758;19;20438;-68
2023/02/27 08:28:54;;;;;;;5.03;2.30;;;;;;;;;;12815458;19;20426;-69
2023/02/27 08:33:40;;;;;;;5.88;2.58;;;;;;;;;;12827231;19;20048;-69
2023/02/27 08:38:42;;;;;;;6.68;2.90;;;;;;;;;;12819714;19;20321;-69
2023/02/27 08:43:07;;;;;;;33.38;9.43;;;;;;;;;;12819951;19;20504;-68
2023/02/27 08:48:34;;;;;;;12.13;4.28;;;;;;;;;;12820645;19;20386;-68
2023/02/27 08:53:43;;;;;;;19.42;6.10;;;;;;;;;;12819637;19;20430;-69
2023/02/27 09:08:55;;;;;;;7.75;2.88;;;;;;;;;;12726346;19;2005089;-67
2023/02/27 09:13:37;;;;;;;13.93;6.68;;;;;;;;;;12827916;19;20428;-67
2023/02/27 09:29:37;;;;;;;15.30;6.07;;;;;;;;;;12817032;19;20323;-68
2023/02/27 09:34:15;;;;;;;9.00;3.47;;;;;;;;;;12813617;19;20545;-68
2023/02/27 09:45:44;;;;;;;5.07;2.70;;;;;;;;;;12823432;19;20014;-69
2023/02/27 09:50:46;;;;;;;7.00;3.45;;;;;;;;;;12816823;19;20440;-69
2023/02/27 09:56:06;;;;;;;6.10;3.00;;;;;;;;;;12817277;19;20564;-68
2023/02/27 10:01:59;;;;;;;6.15;2.10;;;;;;;;;;12814785;19;20411;-67
2023/02/27 10:07:15;;;;;;;2.90;1.35;;;;;;;;;;12816290;19;20385;-68
2023/02/27 10:18:58;;;;;;;5.88;2.70;;;;;;;;;;12879347;19;20299;-68
2023/02/27 10:24:05;;;;;;;4.13;2.13;;;;;;;;;;12881947;19;20437;-68
2023/02/27 10:29:41;;;;;;;5.30;2.92;;;;;;;;;;12872287;19;20318;-68
2023/02/27 10:34:49;;;;;;;3.10;1.38;;;;;;;;;;12871910;19;20330;-67
2023/02/27 10:40:13;;;;;;;6.93;3.13;;;;;;;;;;12873050;19;20505;-69
2023/02/27 10:45:49;;;;;;;2.63;1.80;;;;;;;;;;12871243;19;20349;-68
2023/02/27 10:51:13;;;;;;;5.05;2.80;;;;;;;;;;12871718;19;20010;-67
2023/02/27 11:02:03;;;;;;;3.13;1.60;;;;;;;;;;12776668;19;2005123;-68
2023/02/27 11:07:47;;;;;;;2.43;1.60;;;;;;;;;;12875320;19;20014;-67
2023/02/27 11:12:40;;;;;;;2.65;1.33;;;;;;;;;;12878227;19;20017;-67
2023/02/27 11:17:54;;;;;;;23.02;6.22;;;;;;;;;;12879288;19;20583;-67
2023/02/27 11:22:48;;;;;;;1.45;1.17;;;;;;;;;;12835637;19;20311;-69
2023/02/27 11:27:36;;;;;;;4.28;2.47;;;;;;;;;;12828373;19;20425;-70
2023/02/27 11:32:56;;;;;;;2.83;2.03;;;;;;;;;;12828861;19;20543;-69
2023/02/27 11:38:36;;;;;;;5.40;2.88;;;;;;;;;;12819718;19;20491;-69
2023/02/27 11:43:56;;;;;;;6.13;2.25;;;;;;;;;;12718957;19;2004985;-69
2023/02/27 11:49:18;;;;;;;2.33;1.35;;;;;;;;;;12819270;19;20087;-69
2023/02/27 12:00:53;;;;;;;7.60;2.78;;;;;;;;;;12817511;19;20448;-69
2023/02/27 12:12:54;;;;;;;7.20;2.28;;;;;;;;;;12807644;19;20379;-68
2023/02/27 12:17:54;;;;;;;5.55;2.00;;;;;;;;;;12809621;19;20331;-68
2023/02/27 12:22:39;;;;;;;6.07;2.83;;;;;;;;;;12816585;19;20555;-69
2023/02/27 12:28:09;;;;;;;3.92;1.83;;;;;;;;;;12818994;19;20472;-70
2023/02/27 12:34:17;;;;;;;4.72;1.90;;;;;;;;;;12713182;19;2005482;-70
2023/02/27 12:38:50;;;;;;;41.47;12.25;;;;;;;;;;12815556;19;20299;-69
2023/02/27 12:55:49;;;;;;;8.48;3.30;;;;;;;;;;12822524;19;20382;-69
2023/02/27 13:01:09;;;;;;;13.23;4.88;;;;;;;;;;12823633;19;20379;-69
2023/02/27 13:06:49;;;;;;;5.25;3.53;;;;;;;;;;12821954;19;20310;-68
2023/02/27 13:11:53;;;;;;;11.60;4.35;;;;;;;;;;12821573;19;20326;-68
2023/02/27 13:23:54;;;;;;;23.23;9.13;;;;;;;;;;12811561;19;20451;-69
2023/02/27 13:28:43;;;;;;;12.40;5.65;;;;;;;;;;12819855;19;20497;-68
2023/02/27 13:39:43;;;;;;;21.52;7.97;;;;;;;;;;12820634;19;20375;-69
2023/02/27 13:44:40;;;;;;;8.35;2.15;;;;;;;;;;12817365;19;20321;-69
2023/02/27 13:49:41;;;;;;;16.92;6.78;;;;;;;;;;12820359;19;20430;-69
2023/02/27 13:55:50;;;;;;;4.05;1.13;;;;;;;;;;12820181;19;20306;-69
2023/02/27 14:01:35;;;;;;;4.65;1.65;;;;;;;;;;12710798;19;2005074;-70
2023/02/27 14:05:59;;;;;;;47.78;14.30;;;;;;;;;;12812232;19;20082;-68
2023/02/27 14:11:07;;;;;;;6.30;2.70;;;;;;;;;;12812473;19;20371;-69
2023/02/27 14:16:38;;;;;;;25.20;8.07;;;;;;;;;;12814481;19;20541;-68
2023/02/27 14:22:13;;;;;;;6.93;2.42;;;;;;;;;;12818067;19;20694;-69
2023/02/27 14:34:03;;;;;;;36.58;13.38;;;;;;;;;;12717316;19;2005396;-68
2023/02/27 14:39:02;;;;;;;13.23;5.18;;;;;;;;;;12816915;19;20430;-69
2023/02/27 14:55:51;;;;;;;5.32;1.75;;;;;;;;;;12817029;19;20058;-68
2023/02/27 15:01:03;;;;;;;9.15;2.88;;;;;;;;;;12829741;19;20433;-67
2023/02/27 15:12:10;;;;;;;17.20;5.28;;;;;;;;;;12724633;19;2005120;-67
2023/02/27 15:16:54;;;;;;;17.27;6.43;;;;;;;;;;12829015;19;20453;-68
2023/02/27 15:27:56;;;;;;;15.70;4.70;;;;;;;;;;12819778;19;20359;-67
2023/02/27 15:44:40;;;;;;;3.65;2.33;;;;;;;;;;12824519;19;20427;-67
2023/02/27 15:55:50;;;;;;;20.85;6.22;;;;;;;;;;12825285;19;20010;-68
2023/02/27 16:00:40;;;;;;;17.13;7.57;;;;;;;;;;12823324;19;20433;-68
2023/02/27 16:11:41;;;;;;;18.63;6.15;;;;;;;;;;12824223;19;20326;-68
2023/02/27 16:16:51;;;;;;;15.75;5.63;;;;;;;;;;12822164;19;20033;-68
2023/02/27 16:28:05;;;;;;;31.92;9.32;;;;;;;;;;12722650;19;2004994;-68
2023/02/27 16:33:13;;;;;;;33.10;8.70;;;;;;;;;;12824735;19;20330;-66
2023/02/27 16:38:44;;;;;;;69.88;33.30;;;;;;;;;;12824765;19;20434;-67
2023/02/27 16:44:07;;;;;;;53.53;11.63;;;;;;;;;;12722538;19;2005041;-67
2023/02/27 16:48:44;;;;;;;17.65;5.30;;;;;;;;;;12823116;19;20793;-67
2023/02/27 16:59:42;;;;;;;33.33;7.38;;;;;;;;;;12815096;19;20438;-66
2023/02/27 17:04:17;;;;;;;31.65;8.55;;;;;;;;;;12814638;19;20003;-67
2023/02/27 17:15:00;;;;;;;19.67;6.95;;;;;;;;;;12715095;19;2004943;-68
2023/02/27 17:19:55;;;;;;;31.38;8.82;;;;;;;;;;12822060;19;20444;-68
2023/02/27 17:30:45;;;;;;;85.80;25.13;;;;;;;;;;12810516;19;20448;-69
2023/02/27 17:35:36;;;;;;;113.97;29.35;;;;;;;;;;12812931;19;20690;-68
2023/02/27 17:40:57;;;;;;;81.28;25.40;;;;;;;;;;12822698;19;20429;-68
2023/02/27 17:45:44;;;;;;;22.25;7.53;;;;;;;;;;12820777;19;20909;-68
2023/02/27 17:50:52;;;;;;;21.20;6.82;;;;;;;;;;12812260;19;20429;-68
2023/02/27 18:01:39;;;;;;;20.73;8.30;;;;;;;;;;12810358;19;20420;-68
2023/02/27 18:06:35;;;;;;;15.15;6.57;;;;;;;;;;12810104;19;20449;-68
2023/02/27 18:10:58;;;;;;;17.30;6.43;;;;;;;;;;12812819;19;20640;-68
2023/02/27 18:16:00;;;;;;;4.57;2.90;;;;;;;;;;12814163;19;20480;-68
2023/02/27 18:21:50;;;;;;;6.82;4.22;;;;;;;;;;12810087;19;20300;-67
2023/02/27 18:26:36;;;;;;;10.13;7.10;;;;;;;;;;12810908;19;20035;-68
2023/02/27 18:37:15;;;;;;;23.63;9.10;;;;;;;;;;12721561;19;2005046;-67
2023/02/27 18:41:59;;;;;;;21.50;9.85;;;;;;;;;;12830138;19;20010;-68
2023/02/27 18:46:29;;;;;;;23.48;11.30;;;;;;;;;;12829875;19;20374;-68
2023/02/27 18:51:51;;;;;;;;;;;;;;;;;;12830662;19;20452;-68
2023/02/27 18:56:34;;;;;;;25.02;12.23;;;;;;;;;;12825248;19;20195;-68
2023/02/27 19:00:57;;;;;;;14.45;7.10;;;;;;;;;;12828262;19;20452;-68
2023/02/27 19:06:29;;;;;;;15.98;6.55;;;;;;;;;;12829025;19;20429;-68
2023/02/27 19:11:47;;;;;;;28.13;11.33;;;;;;;;;;12826327;19;20469;-68
2023/02/27 19:16:38;;;;;;;58.88;18.05;;;;;;;;;;12827848;19;20467;-68
2023/02/27 19:27:43;;;;;;;188.13;50.65;;;;;;;;;;12819569;19;20512;-68
2023/02/27 19:32:36;;;;;;;127.60;33.75;;;;;;;;;;12818686;19;20348;-68
2023/02/27 19:37:17;;;;;;;122.13;30.48;;;;;;;;;;12819748;19;20318;-68
2023/02/27 19:41:55;;;;;;;32.42;14.13;;;;;;;;;;12820966;19;20302;-68
2023/02/27 19:47:03;;;;;;;62.22;18.80;;;;;;;;;;12818696;19;20403;-68
2023/02/27 19:51:35;;;;;;;57.47;20.80;;;;;;;;;;12818552;19;20315;-67
2023/02/27 20:02:14;;;;;;;204.15;50.55;;;;;;;;;;12717027;19;2004828;-68
2023/02/27 20:07:10;;;;;;;195.80;48.70;;;;;;;;;;12817316;19;20052;-68
2023/02/27 20:12:47;;;;;;;57.70;18.90;;;;;;;;;;12822548;19;20659;-68
2023/02/27 20:17:44;;;;;;;40.88;12.90;;;;;;;;;;12822578;19;20420;-68
2023/02/27 20:22:51;;;;;;;25.33;9.75;;;;;;;;;;12823941;19;20437;-68
2023/02/27 20:27:36;;;;;;;80.25;23.00;;;;;;;;;;12826080;19;20310;-68
2023/02/27 20:32:55;;;;;;;69.68;20.67;;;;;;;;;;12822323;19;20448;-68
2023/02/27 20:37:48;;;;;;;62.53;17.67;;;;;;;;;;12823165;19;20011;-68
2023/02/27 20:42:12;;;;;;;55.40;17.53;;;;;;;;;;12824968;19;20418;-68
2023/02/27 20:47:10;;;;;;;62.28;17.98;;;;;;;;;;12826398;19;20319;-67
2023/02/27 20:56:59;;;;;;;65.72;21.63;;;;;;;;;;12820483;19;20396;-68
2023/02/27 21:12:35;;;;;;;68.65;21.27;;;;;;;;;;12819893;19;20562;-68
2023/02/27 21:29:55;;;;;;;73.38;21.25;;;;;;;;;;12821822;19;20070;-69
2023/02/27 21:34:35;;;;;;;39.97;15.43;;;;;;;;;;12821013;19;20316;-69
2023/02/27 21:39:32;;;;;;;32.40;11.57;;;;;;;;;;12820321;19;20429;-68
2023/02/27 21:44:58;;;;;;;74.70;26.27;;;;;;;;;;12820113;19;20421;-68
2023/02/27 21:49:36;;;;;;;42.22;14.68;;;;;;;;;;12820099;19;20022;-68
2023/02/27 21:54:04;;;;;;;36.85;11.98;;;;;;;;;;12820424;19;20291;-68
2023/02/27 22:04:08;;;;;;;49.38;16.88;;;;;;;;;;12816898;19;20796;-68
2023/02/27 22:08:56;;;;;;;60.28;20.05;;;;;;;;;;12815308;19;20493;-68
2023/02/27 22:19:40;;;;;;;15.30;7.35;;;;;;;;;;12818076;19;20422;-68
2023/02/27 22:24:14;;;;;;;16.27;6.38;;;;;;;;;;12811132;19;20477;-67
2023/02/27 22:40:20;;;;;;;13.18;6.20;;;;;;;;;;12809213;19;20437;-68
2023/02/27 22:44:38;;;;;;;19.73;7.40;;;;;;;;;;12811684;19;20031;-69
2023/02/27 22:49:52;;;;;;;12.65;6.22;;;;;;;;;;12810807;19;20102;-68
2023/02/27 22:54:38;;;;;;;14.00;6.20;;;;;;;;;;12813893;19;20322;-68
2023/02/27 22:59:08;;;;;;;20.65;6.05;;;;;;;;;;12813817;19;20436;-68
2023/02/27 23:09:47;;;;;;;60.00;23.85;;;;;;;;;;12816572;19;20461;-68
2023/02/27 23:14:35;;;;;;;31.25;13.40;;;;;;;;;;12815951;19;20440;-68
2023/02/27 23:18:57;;;;;;;76.07;19.17;;;;;;;;;;12826328;19;20397;-68
2023/02/27 23:24:13;;;;;;;22.15;7.10;;;;;;;;;;12829187;19;20027;-68
2023/02/27 23:29:10;;;;;;;66.47;12.55;;;;;;;;;;12824735;19;20755;-68
2023/02/27 23:33:36;;;;;;;82.20;16.63;;;;;;;;;;12828264;19;20015;-68
2023/02/27 23:38:35;;;;;;;19.73;6.95;;;;;;;;;;12827146;19;20493;-68
2023/02/27 23:43:53;;;;;;;38.20;8.77;;;;;;;;;;12823960;19;20431;-68
2023/02/27 23:48:44;;;;;;;97.47;19.75;;;;;;;;;;12826231;19;20336;-68
2023/02/27 23:59:35;;;;;;;25.92;7.43;;;;;;;;;;12816867;19;20429;-68
